sensor_id;sensor_type;location;lat;lon;timestamp;P1;durP1;ratioP1;P2;durP2;ratioP2
15155;SDS011;7678;50.058;8.306;2023-02-15T00:01:52;110.50;;;34.67;;
15155;SDS011;7678;50.058;8.306;2023-02-15T00:04:22;90.80;;;35.50;;
15155;SDS011;7678;50.058;8.306;2023-02-15T00:07:13;81.17;;;34.60;;
15155;SDS011;7678;50.058;8.306;2023-02-15T00:09:41;70.33;;;34.33;;
15155;SDS011;7678;50.058;8.306;2023-02-15T00:12:09;72.13;;;34.80;;
15155;SDS011;7678;50.058;8.306;2023-02-15T00:14:37;65.27;;;33.13;;
15155;SDS011;7678;50.058;8.306;2023-02-15T00:17:07;66.20;;;33.03;;
15155;SDS011;7678;50.058;8.306;2023-02-15T00:19:37;71.63;;;33.10;;
15155;SDS011;7678;50.058;8.306;2023-02-15T00:22:06;92.43;;;36.43;;
15155;SDS011;7678;50.058;8.306;2023-02-15T00:24:34;70.80;;;34.37;;
15155;SDS011;7678;50.058;8.306;2023-02-15T00:27:02;83.40;;;37.07;;
15155;SDS011;7678;50.058;8.306;2023-02-15T00:29:30;82.13;;;35.93;;
15155;SDS011;7678;50.058;8.306;2023-02-15T00:32:00;75.83;;;36.87;;
15155;SDS011;7678;50.058;8.306;2023-02-15T00:34:30;79.80;;;35.53;;
15155;SDS011;7678;50.058;8.306;2023-02-15T00:36:58;72.97;;;34.33;;
15155;SDS011;7678;50.058;8.306;2023-02-15T00:39:26;94.23;;;36.93;;
15155;SDS011;7678;50.058;8.306;2023-02-15T00:41:55;121.87;;;37.27;;
15155;SDS011;7678;50.058;8.306;2023-02-15T00:44:23;85.47;;;38.03;;
15155;SDS011;7678;50.058;8.306;2023-02-15T00:46:51;82.30;;;37.20;;
15155;SDS011;7678;50.058;8.306;2023-02-15T00:49:19;140.30;;;37.63;;
15155;SDS011;7678;50.058;8.306;2023-02-15T00:51:48;103.47;;;38.30;;
15155;SDS011;7678;50.058;8.306;2023-02-15T00:54:16;78.43;;;36.03;;
15155;SDS011;7678;50.058;8.306;2023-02-15T00:56:44;106.80;;;38.70;;
15155;SDS011;7678;50.058;8.306;2023-02-15T00:59:12;97.90;;;38.77;;
15155;SDS011;7678;50.058;8.306;2023-02-15T01:01:40;101.37;;;40.23;;
15155;SDS011;7678;50.058;8.306;2023-02-15T01:04:08;94.57;;;37.97;;
15155;SDS011;7678;50.058;8.306;2023-02-15T01:06:36;103.50;;;41.40;;
15155;SDS011;7678;50.058;8.306;2023-02-15T01:09:05;100.93;;;41.37;;
15155;SDS011;7678;50.058;8.306;2023-02-15T01:11:34;93.33;;;39.67;;
15155;SDS011;7678;50.058;8.306;2023-02-15T01:14:02;96.37;;;41.83;;
15155;SDS011;7678;50.058;8.306;2023-02-15T01:16:34;100.50;;;41.73;;
15155;SDS011;7678;50.058;8.306;2023-02-15T01:19:02;97.30;;;41.57;;
15155;SDS011;7678;50.058;8.306;2023-02-15T01:21:30;98.80;;;42.00;;
15155;SDS011;7678;50.058;8.306;2023-02-15T01:24:00;103.40;;;43.37;;
15155;SDS011;7678;50.058;8.306;2023-02-15T01:26:30;103.70;;;41.40;;
15155;SDS011;7678;50.058;8.306;2023-02-15T01:28:58;101.60;;;43.23;;
15155;SDS011;7678;50.058;8.306;2023-02-15T01:31:26;107.60;;;41.33;;
15155;SDS011;7678;50.058;8.306;2023-02-15T01:33:57;109.53;;;42.50;;
15155;SDS011;7678;50.058;8.306;2023-02-15T01:36:25;108.70;;;42.60;;
15155;SDS011;7678;50.058;8.306;2023-02-15T01:38:53;142.63;;;40.77;;
15155;SDS011;7678;50.058;8.306;2023-02-15T01:41:21;260.77;;;43.50;;
15155;SDS011;7678;50.058;8.306;2023-02-15T01:43:55;98.13;;;41.10;;
15155;SDS011;7678;50.058;8.306;2023-02-15T01:46:26;104.13;;;42.67;;
15155;SDS011;7678;50.058;8.306;2023-02-15T01:49:00;109.70;;;42.87;;
15155;SDS011;7678;50.058;8.306;2023-02-15T01:51:35;245.00;;;45.93;;
15155;SDS011;7678;50.058;8.306;2023-02-15T01:54:07;146.37;;;43.17;;
15155;SDS011;7678;50.058;8.306;2023-02-15T01:56:41;124.30;;;43.97;;
15155;SDS011;7678;50.058;8.306;2023-02-15T01:59:11;112.50;;;43.33;;
15155;SDS011;7678;50.058;8.306;2023-02-15T02:01:43;105.67;;;42.73;;
15155;SDS011;7678;50.058;8.306;2023-02-15T02:04:12;120.63;;;40.37;;
15155;SDS011;7678;50.058;8.306;2023-02-15T02:06:44;102.80;;;42.17;;
15155;SDS011;7678;50.058;8.306;2023-02-15T02:09:15;116.80;;;43.47;;
15155;SDS011;7678;50.058;8.306;2023-02-15T02:11:44;117.63;;;46.30;;
15155;SDS011;7678;50.058;8.306;2023-02-15T02:14:16;108.03;;;43.43;;
15155;SDS011;7678;50.058;8.306;2023-02-15T02:16:47;108.57;;;43.73;;
15155;SDS011;7678;50.058;8.306;2023-02-15T02:19:27;120.37;;;44.13;;
15155;SDS011;7678;50.058;8.306;2023-02-15T02:28:57;121.73;;;45.20;;
15155;SDS011;7678;50.058;8.306;2023-02-15T02:31:57;110.73;;;44.17;;
15155;SDS011;7678;50.058;8.306;2023-02-15T02:34:54;110.20;;;45.73;;
15155;SDS011;7678;50.058;8.306;2023-02-15T02:37:28;98.73;;;41.90;;
15155;SDS011;7678;50.058;8.306;2023-02-15T02:40:03;102.50;;;43.77;;
15155;SDS011;7678;50.058;8.306;2023-02-15T02:42:39;140.97;;;44.90;;
15155;SDS011;7678;50.058;8.306;2023-02-15T02:45:12;118.60;;;44.03;;
15155;SDS011;7678;50.058;8.306;2023-02-15T02:47:44;107.93;;;43.43;;
15155;SDS011;7678;50.058;8.306;2023-02-15T02:50:18;96.93;;;43.30;;
15155;SDS011;7678;50.058;8.306;2023-02-15T02:52:50;117.97;;;45.27;;
15155;SDS011;7678;50.058;8.306;2023-02-15T02:55:20;117.30;;;43.23;;
15155;SDS011;7678;50.058;8.306;2023-02-15T02:57:52;103.93;;;43.00;;
15155;SDS011;7678;50.058;8.306;2023-02-15T03:00:22;113.77;;;44.97;;
15155;SDS011;7678;50.058;8.306;2023-02-15T03:02:54;108.47;;;42.13;;
15155;SDS011;7678;50.058;8.306;2023-02-15T03:05:33;125.37;;;43.67;;
15155;SDS011;7678;50.058;8.306;2023-02-15T03:08:03;109.53;;;42.33;;
15155;SDS011;7678;50.058;8.306;2023-02-15T03:10:36;112.80;;;43.37;;
15155;SDS011;7678;50.058;8.306;2023-02-15T03:13:07;107.67;;;41.10;;
15155;SDS011;7678;50.058;8.306;2023-02-15T03:15:37;103.27;;;40.33;;
15155;SDS011;7678;50.058;8.306;2023-02-15T03:18:25;114.67;;;40.17;;
15155;SDS011;7678;50.058;8.306;2023-02-15T03:20:59;111.60;;;41.93;;
15155;SDS011;7678;50.058;8.306;2023-02-15T03:23:30;106.40;;;42.90;;
15155;SDS011;7678;50.058;8.306;2023-02-15T03:26:00;103.10;;;40.93;;
15155;SDS011;7678;50.058;8.306;2023-02-15T03:28:31;108.90;;;40.43;;
15155;SDS011;7678;50.058;8.306;2023-02-15T03:31:04;110.90;;;40.00;;
15155;SDS011;7678;50.058;8.306;2023-02-15T03:33:34;94.77;;;40.57;;
15155;SDS011;7678;50.058;8.306;2023-02-15T03:36:09;110.13;;;41.73;;
15155;SDS011;7678;50.058;8.306;2023-02-15T03:38:47;95.33;;;39.33;;
15155;SDS011;7678;50.058;8.306;2023-02-15T03:41:19;89.63;;;39.40;;
15155;SDS011;7678;50.058;8.306;2023-02-15T03:43:51;107.33;;;39.00;;
15155;SDS011;7678;50.058;8.306;2023-02-15T03:46:23;93.73;;;38.30;;
15155;SDS011;7678;50.058;8.306;2023-02-15T03:48:56;85.43;;;35.67;;
15155;SDS011;7678;50.058;8.306;2023-02-15T03:51:30;85.60;;;37.97;;
15155;SDS011;7678;50.058;8.306;2023-02-15T03:54:02;90.73;;;37.07;;
15155;SDS011;7678;50.058;8.306;2023-02-15T03:56:33;92.93;;;37.57;;
15155;SDS011;7678;50.058;8.306;2023-02-15T03:59:02;106.97;;;38.53;;
15155;SDS011;7678;50.058;8.306;2023-02-15T04:01:52;96.67;;;39.00;;
15155;SDS011;7678;50.058;8.306;2023-02-15T04:04:35;100.33;;;38.37;;
15155;SDS011;7678;50.058;8.306;2023-02-15T04:07:06;83.70;;;36.37;;
15155;SDS011;7678;50.058;8.306;2023-02-15T04:09:35;91.53;;;38.43;;
15155;SDS011;7678;50.058;8.306;2023-02-15T04:12:21;105.63;;;39.77;;
15155;SDS011;7678;50.058;8.306;2023-02-15T04:14:49;99.40;;;41.43;;
15155;SDS011;7678;50.058;8.306;2023-02-15T04:17:35;97.67;;;40.50;;
15155;SDS011;7678;50.058;8.306;2023-02-15T04:20:04;102.73;;;39.63;;
15155;SDS011;7678;50.058;8.306;2023-02-15T04:22:52;103.77;;;40.63;;
15155;SDS011;7678;50.058;8.306;2023-02-15T04:25:37;92.90;;;39.97;;
15155;SDS011;7678;50.058;8.306;2023-02-15T04:28:06;113.50;;;40.20;;
15155;SDS011;7678;50.058;8.306;2023-02-15T04:30:34;102.20;;;42.77;;
15155;SDS011;7678;50.058;8.306;2023-02-15T04:33:03;115.43;;;40.90;;
15155;SDS011;7678;50.058;8.306;2023-02-15T04:35:31;89.33;;;40.17;;
15155;SDS011;7678;50.058;8.306;2023-02-15T04:38:01;101.77;;;40.60;;
15155;SDS011;7678;50.058;8.306;2023-02-15T04:40:29;97.63;;;39.50;;
15155;SDS011;7678;50.058;8.306;2023-02-15T04:42:57;103.10;;;42.03;;
15155;SDS011;7678;50.058;8.306;2023-02-15T04:45:25;95.03;;;39.37;;
15155;SDS011;7678;50.058;8.306;2023-02-15T04:47:54;91.77;;;39.63;;
15155;SDS011;7678;50.058;8.306;2023-02-15T04:50:22;87.77;;;38.83;;
15155;SDS011;7678;50.058;8.306;2023-02-15T04:52:50;86.67;;;38.40;;
15155;SDS011;7678;50.058;8.306;2023-02-15T04:55:20;90.07;;;39.23;;
15155;SDS011;7678;50.058;8.306;2023-02-15T04:57:48;91.60;;;40.00;;
15155;SDS011;7678;50.058;8.306;2023-02-15T05:00:16;81.53;;;37.40;;
15155;SDS011;7678;50.058;8.306;2023-02-15T05:02:44;87.83;;;39.77;;
15155;SDS011;7678;50.058;8.306;2023-02-15T05:05:13;88.87;;;39.87;;
15155;SDS011;7678;50.058;8.306;2023-02-15T05:07:41;84.23;;;38.73;;
15155;SDS011;7678;50.058;8.306;2023-02-15T05:10:09;92.07;;;41.70;;
15155;SDS011;7678;50.058;8.306;2023-02-15T05:12:39;110.97;;;40.83;;
15155;SDS011;7678;50.058;8.306;2023-02-15T05:15:07;102.10;;;41.50;;
15155;SDS011;7678;50.058;8.306;2023-02-15T05:17:35;100.23;;;41.43;;
15155;SDS011;7678;50.058;8.306;2023-02-15T05:20:04;108.60;;;41.53;;
15155;SDS011;7678;50.058;8.306;2023-02-15T05:22:33;109.27;;;42.30;;
15155;SDS011;7678;50.058;8.306;2023-02-15T05:25:01;99.30;;;42.90;;
15155;SDS011;7678;50.058;8.306;2023-02-15T05:27:48;84.73;;;37.97;;
15155;SDS011;7678;50.058;8.306;2023-02-15T05:30:33;97.07;;;42.03;;
15155;SDS011;7678;50.058;8.306;2023-02-15T05:33:02;99.63;;;40.47;;
15155;SDS011;7678;50.058;8.306;2023-02-15T05:35:32;89.87;;;39.47;;
15155;SDS011;7678;50.058;8.306;2023-02-15T05:38:01;109.87;;;40.97;;
15155;SDS011;7678;50.058;8.306;2023-02-15T05:40:29;94.43;;;38.97;;
15155;SDS011;7678;50.058;8.306;2023-02-15T05:42:59;122.17;;;39.53;;
15155;SDS011;7678;50.058;8.306;2023-02-15T05:45:27;100.63;;;39.20;;
15155;SDS011;7678;50.058;8.306;2023-02-15T05:47:55;72.07;;;35.33;;
15155;SDS011;7678;50.058;8.306;2023-02-15T05:50:24;86.83;;;38.23;;
15155;SDS011;7678;50.058;8.306;2023-02-15T05:52:52;91.00;;;39.43;;
15155;SDS011;7678;50.058;8.306;2023-02-15T05:55:20;87.50;;;38.93;;
15155;SDS011;7678;50.058;8.306;2023-02-15T05:57:48;94.80;;;39.40;;
15155;SDS011;7678;50.058;8.306;2023-02-15T06:00:18;91.47;;;37.70;;
15155;SDS011;7678;50.058;8.306;2023-02-15T06:02:46;79.80;;;37.43;;
15155;SDS011;7678;50.058;8.306;2023-02-15T06:05:14;118.43;;;38.93;;
15155;SDS011;7678;50.058;8.306;2023-02-15T06:07:43;88.13;;;38.27;;
15155;SDS011;7678;50.058;8.306;2023-02-15T06:10:11;88.63;;;37.93;;
15155;SDS011;7678;50.058;8.306;2023-02-15T06:12:39;94.20;;;40.07;;
15155;SDS011;7678;50.058;8.306;2023-02-15T06:15:08;88.93;;;38.37;;
15155;SDS011;7678;50.058;8.306;2023-02-15T06:17:37;90.47;;;37.63;;
15155;SDS011;7678;50.058;8.306;2023-02-15T06:20:08;86.63;;;37.60;;
15155;SDS011;7678;50.058;8.306;2023-02-15T06:22:36;105.23;;;37.33;;
15155;SDS011;7678;50.058;8.306;2023-02-15T06:25:05;89.17;;;37.17;;
15155;SDS011;7678;50.058;8.306;2023-02-15T06:27:36;101.07;;;36.57;;
15155;SDS011;7678;50.058;8.306;2023-02-15T06:30:04;80.07;;;37.10;;
15155;SDS011;7678;50.058;8.306;2023-02-15T06:32:33;85.93;;;37.60;;
15155;SDS011;7678;50.058;8.306;2023-02-15T06:35:03;86.73;;;39.23;;
15155;SDS011;7678;50.058;8.306;2023-02-15T06:37:31;80.07;;;37.67;;
15155;SDS011;7678;50.058;8.306;2023-02-15T06:39:59;74.90;;;34.57;;
15155;SDS011;7678;50.058;8.306;2023-02-15T06:42:29;82.80;;;33.20;;
15155;SDS011;7678;50.058;8.306;2023-02-15T06:44:57;79.63;;;35.17;;
15155;SDS011;7678;50.058;8.306;2023-02-15T06:47:26;80.23;;;35.17;;
15155;SDS011;7678;50.058;8.306;2023-02-15T06:49:55;81.47;;;36.67;;
15155;SDS011;7678;50.058;8.306;2023-02-15T06:52:25;80.17;;;35.17;;
15155;SDS011;7678;50.058;8.306;2023-02-15T06:54:54;71.23;;;35.40;;
15155;SDS011;7678;50.058;8.306;2023-02-15T06:57:22;72.57;;;33.17;;
15155;SDS011;7678;50.058;8.306;2023-02-15T06:59:50;72.17;;;31.57;;
15155;SDS011;7678;50.058;8.306;2023-02-15T07:02:19;68.00;;;31.47;;
15155;SDS011;7678;50.058;8.306;2023-02-15T07:04:47;67.47;;;32.10;;
15155;SDS011;7678;50.058;8.306;2023-02-15T07:07:15;68.13;;;34.03;;
15155;SDS011;7678;50.058;8.306;2023-02-15T07:09:45;71.70;;;31.33;;
15155;SDS011;7678;50.058;8.306;2023-02-15T07:12:13;62.27;;;29.80;;
15155;SDS011;7678;50.058;8.306;2023-02-15T07:14:58;67.23;;;30.43;;
15155;SDS011;7678;50.058;8.306;2023-02-15T07:17:26;59.80;;;29.57;;
15155;SDS011;7678;50.058;8.306;2023-02-15T07:20:04;60.47;;;28.63;;
15155;SDS011;7678;50.058;8.306;2023-02-15T07:22:37;58.97;;;30.37;;
15155;SDS011;7678;50.058;8.306;2023-02-15T07:25:07;62.73;;;29.63;;
15155;SDS011;7678;50.058;8.306;2023-02-15T07:27:37;57.50;;;28.33;;
15155;SDS011;7678;50.058;8.306;2023-02-15T07:30:06;65.50;;;29.57;;
15155;SDS011;7678;50.058;8.306;2023-02-15T07:32:36;56.30;;;28.93;;
15155;SDS011;7678;50.058;8.306;2023-02-15T07:35:24;50.10;;;26.17;;
15155;SDS011;7678;50.058;8.306;2023-02-15T07:37:53;51.97;;;27.13;;
15155;SDS011;7678;50.058;8.306;2023-02-15T07:40:25;49.63;;;27.37;;
15155;SDS011;7678;50.058;8.306;2023-02-15T07:42:57;60.20;;;28.17;;
15155;SDS011;7678;50.058;8.306;2023-02-15T07:45:25;53.97;;;28.47;;
15155;SDS011;7678;50.058;8.306;2023-02-15T07:47:53;60.80;;;27.80;;
15155;SDS011;7678;50.058;8.306;2023-02-15T07:50:21;54.60;;;28.03;;
15155;SDS011;7678;50.058;8.306;2023-02-15T07:52:49;49.90;;;27.57;;
15155;SDS011;7678;50.058;8.306;2023-02-15T07:55:18;57.37;;;29.53;;
15155;SDS011;7678;50.058;8.306;2023-02-15T07:57:49;47.83;;;27.37;;
15155;SDS011;7678;50.058;8.306;2023-02-15T08:00:18;49.60;;;27.57;;
15155;SDS011;7678;50.058;8.306;2023-02-15T08:02:51;49.40;;;26.80;;
15155;SDS011;7678;50.058;8.306;2023-02-15T08:05:36;48.57;;;25.23;;
15155;SDS011;7678;50.058;8.306;2023-02-15T08:08:04;49.67;;;26.60;;
15155;SDS011;7678;50.058;8.306;2023-02-15T08:10:32;44.07;;;25.70;;
15155;SDS011;7678;50.058;8.306;2023-02-15T08:13:19;40.70;;;24.10;;
15155;SDS011;7678;50.058;8.306;2023-02-15T08:15:50;48.83;;;24.70;;
15155;SDS011;7678;50.058;8.306;2023-02-15T08:18:18;42.90;;;23.63;;
15155;SDS011;7678;50.058;8.306;2023-02-15T08:20:48;40.90;;;23.70;;
15155;SDS011;7678;50.058;8.306;2023-02-15T08:23:17;48.57;;;25.47;;
15155;SDS011;7678;50.058;8.306;2023-02-15T08:25:45;42.07;;;23.93;;
15155;SDS011;7678;50.058;8.306;2023-02-15T08:28:13;41.17;;;22.27;;
15155;SDS011;7678;50.058;8.306;2023-02-15T08:30:42;43.23;;;24.70;;
15155;SDS011;7678;50.058;8.306;2023-02-15T08:33:10;42.67;;;23.27;;
15155;SDS011;7678;50.058;8.306;2023-02-15T08:35:38;42.60;;;23.30;;
15155;SDS011;7678;50.058;8.306;2023-02-15T08:38:07;44.43;;;24.23;;
15155;SDS011;7678;50.058;8.306;2023-02-15T08:40:35;43.37;;;24.30;;
15155;SDS011;7678;50.058;8.306;2023-02-15T08:43:04;44.30;;;24.60;;
15155;SDS011;7678;50.058;8.306;2023-02-15T08:45:33;48.47;;;23.47;;
15155;SDS011;7678;50.058;8.306;2023-02-15T08:48:02;40.60;;;23.57;;
15155;SDS011;7678;50.058;8.306;2023-02-15T08:50:31;43.07;;;25.43;;
15155;SDS011;7678;50.058;8.306;2023-02-15T08:52:59;39.00;;;23.87;;
15155;SDS011;7678;50.058;8.306;2023-02-15T08:55:27;42.33;;;24.27;;
15155;SDS011;7678;50.058;8.306;2023-02-15T08:57:55;47.47;;;25.70;;
15155;SDS011;7678;50.058;8.306;2023-02-15T09:00:24;46.27;;;24.03;;
15155;SDS011;7678;50.058;8.306;2023-02-15T09:02:52;43.63;;;23.83;;
15155;SDS011;7678;50.058;8.306;2023-02-15T09:05:23;40.50;;;23.57;;
15155;SDS011;7678;50.058;8.306;2023-02-15T09:07:51;43.73;;;23.50;;
15155;SDS011;7678;50.058;8.306;2023-02-15T09:10:19;44.93;;;24.40;;
15155;SDS011;7678;50.058;8.306;2023-02-15T09:12:47;44.87;;;25.03;;
15155;SDS011;7678;50.058;8.306;2023-02-15T09:15:16;44.93;;;24.23;;
15155;SDS011;7678;50.058;8.306;2023-02-15T09:17:44;38.33;;;22.73;;
15155;SDS011;7678;50.058;8.306;2023-02-15T09:20:12;38.93;;;22.27;;
15155;SDS011;7678;50.058;8.306;2023-02-15T09:22:41;41.87;;;23.27;;
15155;SDS011;7678;50.058;8.306;2023-02-15T09:25:09;39.70;;;23.60;;
15155;SDS011;7678;50.058;8.306;2023-02-15T09:27:39;37.03;;;22.03;;
15155;SDS011;7678;50.058;8.306;2023-02-15T09:30:08;39.23;;;23.07;;
15155;SDS011;7678;50.058;8.306;2023-02-15T09:32:37;35.80;;;22.17;;
15155;SDS011;7678;50.058;8.306;2023-02-15T09:35:05;37.60;;;21.60;;
15155;SDS011;7678;50.058;8.306;2023-02-15T09:37:34;37.33;;;20.97;;
15155;SDS011;7678;50.058;8.306;2023-02-15T09:40:04;38.50;;;22.90;;
15155;SDS011;7678;50.058;8.306;2023-02-15T09:42:36;39.33;;;22.07;;
15155;SDS011;7678;50.058;8.306;2023-02-15T09:45:30;38.22;;;24.25;;
15155;SDS011;7678;50.058;8.306;2023-02-15T09:48:14;40.70;;;25.98;;
15155;SDS011;7678;50.058;8.306;2023-02-15T09:51:18;38.00;;;24.80;;
15155;SDS011;7678;50.058;8.306;2023-02-15T09:54:01;36.25;;;24.00;;
15155;SDS011;7678;50.058;8.306;2023-02-15T09:56:39;32.33;;;20.67;;
15155;SDS011;7678;50.058;8.306;2023-02-15T09:59:15;34.63;;;20.70;;
15155;SDS011;7678;50.058;8.306;2023-02-15T10:01:53;36.80;;;21.23;;
15155;SDS011;7678;50.058;8.306;2023-02-15T10:04:33;38.45;;;24.35;;
15155;SDS011;7678;50.058;8.306;2023-02-15T10:07:17;36.57;;;21.83;;
15155;SDS011;7678;50.058;8.306;2023-02-15T10:09:54;31.60;;;20.50;;
15155;SDS011;7678;50.058;8.306;2023-02-15T10:12:42;36.57;;;21.50;;
15155;SDS011;7678;50.058;8.306;2023-02-15T10:15:29;35.53;;;20.70;;
15155;SDS011;7678;50.058;8.306;2023-02-15T10:18:14;33.83;;;21.67;;
15155;SDS011;7678;50.058;8.306;2023-02-15T10:20:55;38.80;;;22.00;;
15155;SDS011;7678;50.058;8.306;2023-02-15T10:23:34;37.63;;;21.83;;
15155;SDS011;7678;50.058;8.306;2023-02-15T10:26:18;37.97;;;21.73;;
15155;SDS011;7678;50.058;8.306;2023-02-15T10:28:49;36.00;;;20.80;;
15155;SDS011;7678;50.058;8.306;2023-02-15T10:31:22;38.20;;;24.92;;
15155;SDS011;7678;50.058;8.306;2023-02-15T10:34:06;36.93;;;21.97;;
15155;SDS011;7678;50.058;8.306;2023-02-15T10:36:47;36.53;;;24.17;;
15155;SDS011;7678;50.058;8.306;2023-02-15T10:39:28;37.33;;;22.00;;
15155;SDS011;7678;50.058;8.306;2023-02-15T10:42:06;39.00;;;22.63;;
15155;SDS011;7678;50.058;8.306;2023-02-15T10:44:47;34.90;;;21.87;;
15155;SDS011;7678;50.058;8.306;2023-02-15T10:47:32;39.57;;;23.77;;
15155;SDS011;7678;50.058;8.306;2023-02-15T10:50:27;40.00;;;23.47;;
15155;SDS011;7678;50.058;8.306;2023-02-15T10:53:13;40.03;;;24.30;;
15155;SDS011;7678;50.058;8.306;2023-02-15T10:56:11;39.57;;;23.50;;
15155;SDS011;7678;50.058;8.306;2023-02-15T10:58:57;37.27;;;23.17;;
15155;SDS011;7678;50.058;8.306;2023-02-15T11:01:51;38.83;;;22.57;;
15155;SDS011;7678;50.058;8.306;2023-02-15T11:04:32;38.47;;;23.63;;
15155;SDS011;7678;50.058;8.306;2023-02-15T11:07:15;45.00;;;27.07;;
15155;SDS011;7678;50.058;8.306;2023-02-15T11:09:47;34.43;;;21.67;;
15155;SDS011;7678;50.058;8.306;2023-02-15T11:12:20;38.20;;;23.80;;
15155;SDS011;7678;50.058;8.306;2023-02-15T11:14:52;37.60;;;24.42;;
15155;SDS011;7678;50.058;8.306;2023-02-15T11:17:28;40.13;;;23.43;;
15155;SDS011;7678;50.058;8.306;2023-02-15T11:20:04;40.60;;;22.90;;
15155;SDS011;7678;50.058;8.306;2023-02-15T11:22:43;36.43;;;21.80;;
15155;SDS011;7678;50.058;8.306;2023-02-15T11:25:17;38.03;;;23.93;;
15155;SDS011;7678;50.058;8.306;2023-02-15T11:27:46;37.57;;;22.70;;
15155;SDS011;7678;50.058;8.306;2023-02-15T11:30:20;37.73;;;22.27;;
15155;SDS011;7678;50.058;8.306;2023-02-15T11:32:52;33.93;;;22.03;;
15155;SDS011;7678;50.058;8.306;2023-02-15T11:35:24;31.83;;;20.57;;
15155;SDS011;7678;50.058;8.306;2023-02-15T11:37:58;36.43;;;22.47;;
15155;SDS011;7678;50.058;8.306;2023-02-15T11:40:33;37.10;;;22.93;;
15155;SDS011;7678;50.058;8.306;2023-02-15T11:43:05;34.17;;;22.00;;
15155;SDS011;7678;50.058;8.306;2023-02-15T11:45:40;35.43;;;22.07;;
15155;SDS011;7678;50.058;8.306;2023-02-15T11:48:12;35.33;;;22.17;;
15155;SDS011;7678;50.058;8.306;2023-02-15T11:50:42;36.23;;;21.73;;
15155;SDS011;7678;50.058;8.306;2023-02-15T11:53:12;36.23;;;21.70;;
15155;SDS011;7678;50.058;8.306;2023-02-15T11:55:43;31.63;;;20.40;;
15155;SDS011;7678;50.058;8.306;2023-02-15T11:58:15;32.53;;;20.63;;
15155;SDS011;7678;50.058;8.306;2023-02-15T12:00:51;30.43;;;21.10;;
15155;SDS011;7678;50.058;8.306;2023-02-15T12:03:26;28.63;;;19.27;;
15155;SDS011;7678;50.058;8.306;2023-02-15T12:06:12;30.53;;;19.10;;
15155;SDS011;7678;50.058;8.306;2023-02-15T12:08:48;29.63;;;19.40;;
15155;SDS011;7678;50.058;8.306;2023-02-15T12:11:20;27.83;;;19.33;;
15155;SDS011;7678;50.058;8.306;2023-02-15T12:13:56;31.43;;;19.60;;
15155;SDS011;7678;50.058;8.306;2023-02-15T12:16:25;30.17;;;18.73;;
15155;SDS011;7678;50.058;8.306;2023-02-15T12:18:58;30.57;;;18.93;;
15155;SDS011;7678;50.058;8.306;2023-02-15T12:21:29;30.00;;;19.60;;
15155;SDS011;7678;50.058;8.306;2023-02-15T12:24:02;28.70;;;20.83;;
15155;SDS011;7678;50.058;8.306;2023-02-15T12:26:41;36.20;;;21.63;;
15155;SDS011;7678;50.058;8.306;2023-02-15T12:29:12;41.13;;;22.50;;
15155;SDS011;7678;50.058;8.306;2023-02-15T12:31:44;36.33;;;22.37;;
15155;SDS011;7678;50.058;8.306;2023-02-15T12:34:17;33.70;;;21.97;;
15155;SDS011;7678;50.058;8.306;2023-02-15T12:36:51;35.13;;;23.17;;
15155;SDS011;7678;50.058;8.306;2023-02-15T12:39:25;35.00;;;22.30;;
15155;SDS011;7678;50.058;8.306;2023-02-15T12:42:02;39.70;;;23.53;;
15155;SDS011;7678;50.058;8.306;2023-02-15T12:44:33;36.70;;;22.73;;
15155;SDS011;7678;50.058;8.306;2023-02-15T12:47:03;36.87;;;22.43;;
15155;SDS011;7678;50.058;8.306;2023-02-15T12:49:35;34.87;;;21.13;;
15155;SDS011;7678;50.058;8.306;2023-02-15T12:52:04;33.17;;;21.73;;
15155;SDS011;7678;50.058;8.306;2023-02-15T12:54:49;35.87;;;22.17;;
15155;SDS011;7678;50.058;8.306;2023-02-15T12:57:22;34.63;;;21.93;;
15155;SDS011;7678;50.058;8.306;2023-02-15T12:59:53;35.83;;;22.43;;
15155;SDS011;7678;50.058;8.306;2023-02-15T13:02:24;32.60;;;22.20;;
15155;SDS011;7678;50.058;8.306;2023-02-15T13:05:05;36.27;;;22.87;;
15155;SDS011;7678;50.058;8.306;2023-02-15T13:07:45;36.70;;;22.80;;
15155;SDS011;7678;50.058;8.306;2023-02-15T13:10:21;41.43;;;23.33;;
15155;SDS011;7678;50.058;8.306;2023-02-15T13:12:52;37.17;;;23.50;;
15155;SDS011;7678;50.058;8.306;2023-02-15T13:15:25;40.63;;;24.47;;
15155;SDS011;7678;50.058;8.306;2023-02-15T13:17:57;36.60;;;24.27;;
15155;SDS011;7678;50.058;8.306;2023-02-15T13:20:28;41.27;;;26.33;;
15155;SDS011;7678;50.058;8.306;2023-02-15T13:22:58;39.37;;;24.70;;
15155;SDS011;7678;50.058;8.306;2023-02-15T13:25:31;45.57;;;25.60;;
15155;SDS011;7678;50.058;8.306;2023-02-15T13:28:06;41.20;;;25.47;;
15155;SDS011;7678;50.058;8.306;2023-02-15T13:30:42;43.80;;;27.33;;
15155;SDS011;7678;50.058;8.306;2023-02-15T13:33:14;40.07;;;26.87;;
15155;SDS011;7678;50.058;8.306;2023-02-15T13:36:00;43.83;;;27.43;;
15155;SDS011;7678;50.058;8.306;2023-02-15T13:38:45;43.13;;;27.33;;
15155;SDS011;7678;50.058;8.306;2023-02-15T13:41:20;44.03;;;27.87;;
15155;SDS011;7678;50.058;8.306;2023-02-15T13:43:56;46.03;;;29.27;;
15155;SDS011;7678;50.058;8.306;2023-02-15T13:46:37;48.67;;;27.70;;
15155;SDS011;7678;50.058;8.306;2023-02-15T13:49:14;51.33;;;29.53;;
15155;SDS011;7678;50.058;8.306;2023-02-15T13:51:54;46.37;;;27.80;;
15155;SDS011;7678;50.058;8.306;2023-02-15T13:54:54;42.30;;;28.90;;
15155;SDS011;7678;50.058;8.306;2023-02-15T13:57:38;42.90;;;27.97;;
15155;SDS011;7678;50.058;8.306;2023-02-15T14:00:19;41.83;;;28.67;;
15155;SDS011;7678;50.058;8.306;2023-02-15T14:02:57;46.07;;;28.80;;
15155;SDS011;7678;50.058;8.306;2023-02-15T14:08:53;41.97;;;26.70;;
15155;SDS011;7678;50.058;8.306;2023-02-15T14:11:33;42.37;;;28.43;;
15155;SDS011;7678;50.058;8.306;2023-02-15T14:14:15;39.17;;;26.53;;
15155;SDS011;7678;50.058;8.306;2023-02-15T14:17:09;39.23;;;25.50;;
15155;SDS011;7678;50.058;8.306;2023-02-15T14:19:43;39.10;;;25.13;;
15155;SDS011;7678;50.058;8.306;2023-02-15T14:22:18;36.93;;;24.70;;
15155;SDS011;7678;50.058;8.306;2023-02-15T14:25:12;34.93;;;22.67;;
15155;SDS011;7678;50.058;8.306;2023-02-15T14:27:49;37.00;;;24.60;;
15155;SDS011;7678;50.058;8.306;2023-02-15T14:30:23;37.73;;;25.03;;
15155;SDS011;7678;50.058;8.306;2023-02-15T14:32:57;34.43;;;23.93;;
15155;SDS011;7678;50.058;8.306;2023-02-15T14:35:30;34.37;;;23.43;;
15155;SDS011;7678;50.058;8.306;2023-02-15T14:38:00;34.73;;;24.00;;
15155;SDS011;7678;50.058;8.306;2023-02-15T14:40:39;34.00;;;23.33;;
15155;SDS011;7678;50.058;8.306;2023-02-15T14:43:32;35.40;;;24.00;;
15155;SDS011;7678;50.058;8.306;2023-02-15T14:46:10;34.13;;;24.00;;
15155;SDS011;7678;50.058;8.306;2023-02-15T14:48:45;32.60;;;23.47;;
15155;SDS011;7678;50.058;8.306;2023-02-15T14:57:27;32.83;;;23.90;;
15155;SDS011;7678;50.058;8.306;2023-02-15T15:03:12;36.93;;;24.70;;
15155;SDS011;7678;50.058;8.306;2023-02-15T15:05:50;38.40;;;25.13;;
15155;SDS011;7678;50.058;8.306;2023-02-15T15:08:21;34.97;;;24.83;;
15155;SDS011;7678;50.058;8.306;2023-02-15T15:10:53;36.73;;;24.23;;
15155;SDS011;7678;50.058;8.306;2023-02-15T15:13:39;38.90;;;24.40;;
15155;SDS011;7678;50.058;8.306;2023-02-15T15:16:27;37.47;;;24.80;;
15155;SDS011;7678;50.058;8.306;2023-02-15T15:22:34;36.27;;;26.17;;
15155;SDS011;7678;50.058;8.306;2023-02-15T15:25:04;34.73;;;23.40;;
15155;SDS011;7678;50.058;8.306;2023-02-15T15:27:42;32.10;;;23.00;;
15155;SDS011;7678;50.058;8.306;2023-02-15T15:33:40;39.27;;;26.03;;